sensor_id;sensor_type;location;lat;lon;timestamp;P1;durP1;ratioP1;P2;durP2;ratioP2
20557;SDS011;10437;48.156;11.530;2022-11-04T00:01:13;8.13;;;3.63;;
20557;SDS011;10437;48.156;11.530;2022-11-04T00:03:40;7.95;;;3.88;;
20557;SDS011;10437;48.156;11.530;2022-11-04T00:06:08;6.45;;;4.10;;
20557;SDS011;10437;48.156;11.530;2022-11-04T00:08:35;6.80;;;3.90;;
20557;SDS011;10437;48.156;11.530;2022-11-04T00:11:04;8.55;;;3.40;;
20557;SDS011;10437;48.156;11.530;2022-11-04T00:13:45;5.93;;;3.05;;
20557;SDS011;10437;48.156;11.530;2022-11-04T00:16:12;9.25;;;3.20;;
20557;SDS011;10437;48.156;11.530;2022-11-04T00:18:58;6.05;;;3.05;;
20557;SDS011;10437;48.156;11.530;2022-11-04T00:21:25;6.78;;;3.20;;
20557;SDS011;10437;48.156;11.530;2022-11-04T00:24:10;6.60;;;2.75;;
20557;SDS011;10437;48.156;11.530;2022-11-04T00:26:57;4.65;;;2.53;;
20557;SDS011;10437;48.156;11.530;2022-11-04T00:29:41;6.70;;;2.92;;
20557;SDS011;10437;48.156;11.530;2022-11-04T00:32:09;5.13;;;2.60;;
20557;SDS011;10437;48.156;11.530;2022-11-04T00:34:53;5.60;;;2.50;;
20557;SDS011;10437;48.156;11.530;2022-11-04T00:37:21;4.43;;;2.30;;
20557;SDS011;10437;48.156;11.530;2022-11-04T00:39:48;5.20;;;2.70;;
20557;SDS011;10437;48.156;11.530;2022-11-04T00:42:16;5.32;;;2.80;;
20557;SDS011;10437;48.156;11.530;2022-11-04T00:44:43;7.18;;;2.55;;
20557;SDS011;10437;48.156;11.530;2022-11-04T00:47:10;6.70;;;2.30;;
20557;SDS011;10437;48.156;11.530;2022-11-04T00:49:37;4.10;;;2.50;;
20557;SDS011;10437;48.156;11.530;2022-11-04T00:52:04;3.78;;;2.25;;
20557;SDS011;10437;48.156;11.530;2022-11-04T00:54:32;5.15;;;2.03;;
20557;SDS011;10437;48.156;11.530;2022-11-04T00:56:59;4.63;;;2.28;;
20557;SDS011;10437;48.156;11.530;2022-11-04T00:59:27;4.25;;;2.15;;
20557;SDS011;10437;48.156;11.530;2022-11-04T01:01:54;2.92;;;1.70;;
20557;SDS011;10437;48.156;11.530;2022-11-04T01:04:21;3.03;;;2.00;;
20557;SDS011;10437;48.156;11.530;2022-11-04T01:06:49;3.20;;;1.83;;
20557;SDS011;10437;48.156;11.530;2022-11-04T01:09:16;2.90;;;1.90;;
20557;SDS011;10437;48.156;11.530;2022-11-04T01:11:43;2.65;;;1.70;;
20557;SDS011;10437;48.156;11.530;2022-11-04T01:14:10;3.47;;;1.90;;
20557;SDS011;10437;48.156;11.530;2022-11-04T01:16:39;2.65;;;1.80;;
20557;SDS011;10437;48.156;11.530;2022-11-04T01:19:07;3.90;;;2.28;;
20557;SDS011;10437;48.156;11.530;2022-11-04T01:21:34;3.58;;;1.85;;
20557;SDS011;10437;48.156;11.530;2022-11-04T01:24:01;3.55;;;1.60;;
20557;SDS011;10437;48.156;11.530;2022-11-04T01:26:28;3.10;;;1.52;;
20557;SDS011;10437;48.156;11.530;2022-11-04T01:28:56;2.78;;;1.40;;
20557;SDS011;10437;48.156;11.530;2022-11-04T01:31:26;4.13;;;1.55;;
20557;SDS011;10437;48.156;11.530;2022-11-04T01:33:55;3.42;;;1.45;;
20557;SDS011;10437;48.156;11.530;2022-11-04T01:36:24;2.58;;;1.27;;
20557;SDS011;10437;48.156;11.530;2022-11-04T01:38:53;2.17;;;1.20;;
20557;SDS011;10437;48.156;11.530;2022-11-04T01:41:21;3.72;;;1.40;;
20557;SDS011;10437;48.156;11.530;2022-11-04T01:43:50;4.70;;;1.20;;
20557;SDS011;10437;48.156;11.530;2022-11-04T01:46:25;2.05;;;1.27;;
20557;SDS011;10437;48.156;11.530;2022-11-04T01:49:05;2.10;;;1.00;;
20557;SDS011;10437;48.156;11.530;2022-11-04T01:51:43;2.53;;;1.00;;
20557;SDS011;10437;48.156;11.530;2022-11-04T01:54:12;1.83;;;1.05;;
20557;SDS011;10437;48.156;11.530;2022-11-04T01:56:39;2.70;;;1.00;;
20557;SDS011;10437;48.156;11.530;2022-11-04T01:59:09;1.45;;;0.93;;
20557;SDS011;10437;48.156;11.530;2022-11-04T02:01:40;2.97;;;1.10;;
20557;SDS011;10437;48.156;11.530;2022-11-04T02:04:09;2.92;;;1.00;;
20557;SDS011;10437;48.156;11.530;2022-11-04T02:06:52;2.35;;;1.00;;
20557;SDS011;10437;48.156;11.530;2022-11-04T02:09:21;1.20;;;0.80;;
20557;SDS011;10437;48.156;11.530;2022-11-04T02:11:50;1.48;;;0.90;;
20557;SDS011;10437;48.156;11.530;2022-11-04T02:14:34;1.20;;;0.60;;
20557;SDS011;10437;48.156;11.530;2022-11-04T02:17:04;1.55;;;0.85;;
20557;SDS011;10437;48.156;11.530;2022-11-04T02:19:51;1.30;;;0.75;;
20557;SDS011;10437;48.156;11.530;2022-11-04T02:25:26;1.63;;;0.63;;
20557;SDS011;10437;48.156;11.530;2022-11-04T02:28:15;1.40;;;0.70;;
20557;SDS011;10437;48.156;11.530;2022-11-04T02:31:06;0.98;;;0.70;;
20557;SDS011;10437;48.156;11.530;2022-11-04T02:33:39;1.52;;;0.60;;
20557;SDS011;10437;48.156;11.530;2022-11-04T02:36:14;0.55;;;0.50;;
20557;SDS011;10437;48.156;11.530;2022-11-04T02:38:49;3.40;;;0.70;;
20557;SDS011;10437;48.156;11.530;2022-11-04T02:41:23;0.75;;;0.47;;
20557;SDS011;10437;48.156;11.530;2022-11-04T02:44:01;1.80;;;0.65;;
20557;SDS011;10437;48.156;11.530;2022-11-04T02:46:41;4.13;;;0.63;;
20557;SDS011;10437;48.156;11.530;2022-11-04T02:49:15;0.70;;;0.57;;
20557;SDS011;10437;48.156;11.530;2022-11-04T02:51:46;1.05;;;0.60;;
20557;SDS011;10437;48.156;11.530;2022-11-04T02:54:19;1.17;;;0.47;;
20557;SDS011;10437;48.156;11.530;2022-11-04T02:56:51;0.80;;;0.45;;
20557;SDS011;10437;48.156;11.530;2022-11-04T02:59:22;0.98;;;0.50;;
20557;SDS011;10437;48.156;11.530;2022-11-04T03:01:55;0.70;;;0.47;;
20557;SDS011;10437;48.156;11.530;2022-11-04T03:04:26;1.25;;;0.50;;
20557;SDS011;10437;48.156;11.530;2022-11-04T03:06:56;2.92;;;0.70;;
20557;SDS011;10437;48.156;11.530;2022-11-04T03:09:25;1.90;;;0.50;;
20557;SDS011;10437;48.156;11.530;2022-11-04T03:11:54;0.65;;;0.50;;
20557;SDS011;10437;48.156;11.530;2022-11-04T03:14:27;0.60;;;0.45;;
20557;SDS011;10437;48.156;11.530;2022-11-04T03:17:01;1.08;;;0.50;;
20557;SDS011;10437;48.156;11.530;2022-11-04T03:19:33;0.93;;;0.50;;
20557;SDS011;10437;48.156;11.530;2022-11-04T03:22:09;1.85;;;0.55;;
20557;SDS011;10437;48.156;11.530;2022-11-04T03:24:39;1.40;;;0.60;;
20557;SDS011;10437;48.156;11.530;2022-11-04T03:27:08;0.50;;;0.40;;
20557;SDS011;10437;48.156;11.530;2022-11-04T03:29:45;0.60;;;0.50;;
20557;SDS011;10437;48.156;11.530;2022-11-04T03:32:22;0.50;;;0.30;;
20557;SDS011;10437;48.156;11.530;2022-11-04T03:34:54;0.70;;;0.38;;
20557;SDS011;10437;48.156;11.530;2022-11-04T03:37:21;0.85;;;0.40;;
20557;SDS011;10437;48.156;11.530;2022-11-04T03:39:48;0.60;;;0.32;;
20557;SDS011;10437;48.156;11.530;2022-11-04T03:42:15;0.40;;;0.30;;
20557;SDS011;10437;48.156;11.530;2022-11-04T03:44:46;0.77;;;0.38;;
20557;SDS011;10437;48.156;11.530;2022-11-04T03:47:14;1.00;;;0.50;;
20557;SDS011;10437;48.156;11.530;2022-11-04T03:49:43;0.90;;;0.50;;
20557;SDS011;10437;48.156;11.530;2022-11-04T03:52:12;0.40;;;0.30;;
20557;SDS011;10437;48.156;11.530;2022-11-04T03:54:40;0.88;;;0.60;;
20557;SDS011;10437;48.156;11.530;2022-11-04T03:57:11;2.50;;;0.60;;
20557;SDS011;10437;48.156;11.530;2022-11-04T03:59:53;0.73;;;0.40;;
20557;SDS011;10437;48.156;11.530;2022-11-04T04:02:31;0.70;;;0.40;;
20557;SDS011;10437;48.156;11.530;2022-11-04T04:05:09;0.77;;;0.40;;
20557;SDS011;10437;48.156;11.530;2022-11-04T04:07:40;0.90;;;0.50;;
20557;SDS011;10437;48.156;11.530;2022-11-04T04:10:11;0.75;;;0.40;;
20557;SDS011;10437;48.156;11.530;2022-11-04T04:12:59;0.40;;;0.28;;
20557;SDS011;10437;48.156;11.530;2022-11-04T04:15:30;1.45;;;0.50;;
20557;SDS011;10437;48.156;11.530;2022-11-04T04:18:07;1.20;;;0.30;;
20557;SDS011;10437;48.156;11.530;2022-11-04T04:20:39;1.95;;;0.40;;
20557;SDS011;10437;48.156;11.530;2022-11-04T04:23:12;0.60;;;0.30;;
20557;SDS011;10437;48.156;11.530;2022-11-04T04:25:59;0.52;;;0.40;;
20557;SDS011;10437;48.156;11.530;2022-11-04T04:28:47;0.98;;;0.50;;
20557;SDS011;10437;48.156;11.530;2022-11-04T04:31:15;1.52;;;0.40;;
20557;SDS011;10437;48.156;11.530;2022-11-04T04:34:03;1.05;;;0.60;;
20557;SDS011;10437;48.156;11.530;2022-11-04T04:36:33;1.23;;;0.60;;
20557;SDS011;10437;48.156;11.530;2022-11-04T04:39:06;0.80;;;0.40;;
20557;SDS011;10437;48.156;11.530;2022-11-04T04:41:53;0.60;;;0.40;;
20557;SDS011;10437;48.156;11.530;2022-11-04T04:44:38;0.90;;;0.75;;
20557;SDS011;10437;48.156;11.530;2022-11-04T04:47:26;0.38;;;0.38;;
20557;SDS011;10437;48.156;11.530;2022-11-04T04:50:00;0.40;;;0.30;;
20557;SDS011;10437;48.156;11.530;2022-11-04T04:52:30;1.08;;;0.40;;
20557;SDS011;10437;48.156;11.530;2022-11-04T04:54:58;1.08;;;0.77;;
20557;SDS011;10437;48.156;11.530;2022-11-04T04:57:25;0.40;;;0.38;;
20557;SDS011;10437;48.156;11.530;2022-11-04T04:59:53;0.90;;;0.40;;
20557;SDS011;10437;48.156;11.530;2022-11-04T05:02:19;0.88;;;0.50;;
20557;SDS011;10437;48.156;11.530;2022-11-04T05:04:47;0.75;;;0.40;;
20557;SDS011;10437;48.156;11.530;2022-11-04T05:07:13;1.00;;;0.40;;
20557;SDS011;10437;48.156;11.530;2022-11-04T05:09:42;0.40;;;0.35;;
20557;SDS011;10437;48.156;11.530;2022-11-04T05:12:09;1.55;;;0.38;;
20557;SDS011;10437;48.156;11.530;2022-11-04T05:14:36;1.25;;;0.50;;
20557;SDS011;10437;48.156;11.530;2022-11-04T05:17:03;0.32;;;0.30;;
20557;SDS011;10437;48.156;11.530;2022-11-04T05:19:30;0.40;;;0.30;;
20557;SDS011;10437;48.156;11.530;2022-11-04T05:21:57;0.50;;;0.30;;
20557;SDS011;10437;48.156;11.530;2022-11-04T05:24:24;0.60;;;0.40;;
20557;SDS011;10437;48.156;11.530;2022-11-04T05:26:53;0.45;;;0.40;;
20557;SDS011;10437;48.156;11.530;2022-11-04T05:29:20;1.37;;;0.30;;
20557;SDS011;10437;48.156;11.530;2022-11-04T05:31:47;1.52;;;0.30;;
20557;SDS011;10437;48.156;11.530;2022-11-04T05:34:14;0.68;;;0.35;;
20557;SDS011;10437;48.156;11.530;2022-11-04T05:36:41;0.63;;;0.20;;
20557;SDS011;10437;48.156;11.530;2022-11-04T05:39:10;0.45;;;0.40;;
20557;SDS011;10437;48.156;11.530;2022-11-04T05:41:38;0.77;;;0.40;;
20557;SDS011;10437;48.156;11.530;2022-11-04T05:44:07;0.40;;;0.32;;
20557;SDS011;10437;48.156;11.530;2022-11-04T05:46:35;0.97;;;0.40;;
20557;SDS011;10437;48.156;11.530;2022-11-04T05:49:03;2.03;;;0.30;;
20557;SDS011;10437;48.156;11.530;2022-11-04T05:51:30;0.90;;;0.45;;
20557;SDS011;10437;48.156;11.530;2022-11-04T05:53:57;0.50;;;0.32;;
20557;SDS011;10437;48.156;11.530;2022-11-04T05:56:24;1.75;;;0.63;;
20557;SDS011;10437;48.156;11.530;2022-11-04T05:58:51;0.77;;;0.52;;
20557;SDS011;10437;48.156;11.530;2022-11-04T06:01:24;0.70;;;0.40;;
20557;SDS011;10437;48.156;11.530;2022-11-04T06:03:53;0.52;;;0.40;;
20557;SDS011;10437;48.156;11.530;2022-11-04T06:06:22;1.33;;;0.50;;
20557;SDS011;10437;48.156;11.530;2022-11-04T06:08:49;0.90;;;0.45;;
20557;SDS011;10437;48.156;11.530;2022-11-04T06:11:17;1.90;;;1.05;;
20557;SDS011;10437;48.156;11.530;2022-11-04T06:13:44;1.73;;;1.00;;
20557;SDS011;10437;48.156;11.530;2022-11-04T06:16:12;0.82;;;0.50;;
20557;SDS011;10437;48.156;11.530;2022-11-04T06:18:40;1.60;;;0.60;;
20557;SDS011;10437;48.156;11.530;2022-11-04T06:21:08;2.28;;;0.50;;
20557;SDS011;10437;48.156;11.530;2022-11-04T06:23:44;0.75;;;0.50;;
20557;SDS011;10437;48.156;11.530;2022-11-04T06:26:11;1.02;;;0.60;;
20557;SDS011;10437;48.156;11.530;2022-11-04T06:28:38;1.10;;;0.50;;
20557;SDS011;10437;48.156;11.530;2022-11-04T06:31:07;4.88;;;1.75;;
20557;SDS011;10437;48.156;11.530;2022-11-04T06:33:35;3.20;;;0.50;;
20557;SDS011;10437;48.156;11.530;2022-11-04T06:36:04;0.90;;;0.43;;
20557;SDS011;10437;48.156;11.530;2022-11-04T06:38:33;4.68;;;0.80;;
20557;SDS011;10437;48.156;11.530;2022-11-04T06:41:01;4.27;;;0.70;;
20557;SDS011;10437;48.156;11.530;2022-11-04T06:43:29;3.87;;;0.70;;
20557;SDS011;10437;48.156;11.530;2022-11-04T06:45:56;1.63;;;0.70;;
20557;SDS011;10437;48.156;11.530;2022-11-04T06:48:24;1.57;;;0.70;;
20557;SDS011;10437;48.156;11.530;2022-11-04T06:50:51;1.60;;;0.70;;
20557;SDS011;10437;48.156;11.530;2022-11-04T06:53:20;2.70;;;0.57;;
20557;SDS011;10437;48.156;11.530;2022-11-04T06:55:47;2.78;;;1.00;;
20557;SDS011;10437;48.156;11.530;2022-11-04T06:58:14;3.05;;;0.70;;
20557;SDS011;10437;48.156;11.530;2022-11-04T07:00:41;2.90;;;0.70;;
20557;SDS011;10437;48.156;11.530;2022-11-04T07:03:09;1.65;;;0.70;;
20557;SDS011;10437;48.156;11.530;2022-11-04T07:05:36;1.15;;;0.70;;
20557;SDS011;10437;48.156;11.530;2022-11-04T07:08:03;1.43;;;0.90;;
20557;SDS011;10437;48.156;11.530;2022-11-04T07:10:32;0.93;;;0.60;;
20557;SDS011;10437;48.156;11.530;2022-11-04T07:13:00;0.87;;;0.47;;
20557;SDS011;10437;48.156;11.530;2022-11-04T07:15:27;2.53;;;0.70;;
20557;SDS011;10437;48.156;11.530;2022-11-04T07:17:54;1.90;;;0.70;;
20557;SDS011;10437;48.156;11.530;2022-11-04T07:20:21;2.08;;;0.52;;
20557;SDS011;10437;48.156;11.530;2022-11-04T07:22:49;2.08;;;0.70;;
20557;SDS011;10437;48.156;11.530;2022-11-04T07:25:16;3.78;;;1.00;;
20557;SDS011;10437;48.156;11.530;2022-11-04T07:27:44;1.45;;;0.80;;
20557;SDS011;10437;48.156;11.530;2022-11-04T07:30:11;4.77;;;0.70;;
20557;SDS011;10437;48.156;11.530;2022-11-04T07:32:38;2.90;;;0.97;;
20557;SDS011;10437;48.156;11.530;2022-11-04T07:35:05;0.73;;;0.47;;
20557;SDS011;10437;48.156;11.530;2022-11-04T07:37:33;1.73;;;0.90;;
20557;SDS011;10437;48.156;11.530;2022-11-04T07:40:00;2.13;;;0.67;;
20557;SDS011;10437;48.156;11.530;2022-11-04T07:42:28;1.37;;;0.60;;
20557;SDS011;10437;48.156;11.530;2022-11-04T07:44:57;2.70;;;0.87;;
20557;SDS011;10437;48.156;11.530;2022-11-04T07:47:24;1.40;;;0.55;;
20557;SDS011;10437;48.156;11.530;2022-11-04T07:49:51;1.13;;;0.50;;
20557;SDS011;10437;48.156;11.530;2022-11-04T07:52:18;1.77;;;0.80;;
20557;SDS011;10437;48.156;11.530;2022-11-04T07:54:45;1.23;;;0.80;;
20557;SDS011;10437;48.156;11.530;2022-11-04T07:57:12;0.80;;;0.70;;
20557;SDS011;10437;48.156;11.530;2022-11-04T07:59:39;2.78;;;0.75;;
20557;SDS011;10437;48.156;11.530;2022-11-04T08:02:09;1.70;;;0.70;;
20557;SDS011;10437;48.156;11.530;2022-11-04T08:04:36;10.73;;;1.13;;
20557;SDS011;10437;48.156;11.530;2022-11-04T08:07:03;2.87;;;1.03;;
20557;SDS011;10437;48.156;11.530;2022-11-04T08:09:33;8.73;;;2.67;;
20557;SDS011;10437;48.156;11.530;2022-11-04T08:12:01;7.63;;;2.37;;
20557;SDS011;10437;48.156;11.530;2022-11-04T08:14:29;1.90;;;1.15;;
20557;SDS011;10437;48.156;11.530;2022-11-04T08:16:56;2.20;;;0.90;;
20557;SDS011;10437;48.156;11.530;2022-11-04T08:19:25;3.00;;;0.80;;
20557;SDS011;10437;48.156;11.530;2022-11-04T08:21:52;1.93;;;0.70;;
20557;SDS011;10437;48.156;11.530;2022-11-04T08:24:19;1.67;;;0.80;;
20557;SDS011;10437;48.156;11.530;2022-11-04T08:26:46;2.30;;;0.70;;
20557;SDS011;10437;48.156;11.530;2022-11-04T08:29:13;1.20;;;0.60;;
20557;SDS011;10437;48.156;11.530;2022-11-04T08:31:41;1.17;;;0.90;;
20557;SDS011;10437;48.156;11.530;2022-11-04T08:34:08;3.20;;;1.10;;
20557;SDS011;10437;48.156;11.530;2022-11-04T08:36:37;6.20;;;1.00;;
20557;SDS011;10437;48.156;11.530;2022-11-04T08:39:07;4.57;;;1.30;;
20557;SDS011;10437;48.156;11.530;2022-11-04T08:41:35;3.00;;;1.20;;
20557;SDS011;10437;48.156;11.530;2022-11-04T08:44:03;1.30;;;0.80;;
20557;SDS011;10437;48.156;11.530;2022-11-04T08:46:32;3.10;;;0.93;;
20557;SDS011;10437;48.156;11.530;2022-11-04T08:49:00;0.87;;;0.53;;
20557;SDS011;10437;48.156;11.530;2022-11-04T08:51:27;2.03;;;0.83;;
20557;SDS011;10437;48.156;11.530;2022-11-04T08:53:55;1.00;;;0.60;;
20557;SDS011;10437;48.156;11.530;2022-11-04T08:56:24;0.60;;;0.50;;
20557;SDS011;10437;48.156;11.530;2022-11-04T08:58:53;2.80;;;0.70;;
20557;SDS011;10437;48.156;11.530;2022-11-04T09:01:22;1.00;;;0.40;;
20557;SDS011;10437;48.156;11.530;2022-11-04T09:03:49;1.58;;;0.70;;
20557;SDS011;10437;48.156;11.530;2022-11-04T09:06:17;0.93;;;0.57;;
20557;SDS011;10437;48.156;11.530;2022-11-04T09:08:47;1.77;;;0.80;;
20557;SDS011;10437;48.156;11.530;2022-11-04T09:11:15;2.60;;;0.93;;
20557;SDS011;10437;48.156;11.530;2022-11-04T09:13:43;2.10;;;1.00;;
20557;SDS011;10437;48.156;11.530;2022-11-04T09:16:10;3.35;;;0.75;;
20557;SDS011;10437;48.156;11.530;2022-11-04T09:18:38;2.90;;;0.90;;
20557;SDS011;10437;48.156;11.530;2022-11-04T09:21:06;2.15;;;0.60;;
20557;SDS011;10437;48.156;11.530;2022-11-04T09:23:34;2.83;;;0.90;;
20557;SDS011;10437;48.156;11.530;2022-11-04T09:26:02;3.80;;;1.30;;
20557;SDS011;10437;48.156;11.530;2022-11-04T09:28:31;1.57;;;0.70;;
20557;SDS011;10437;48.156;11.530;2022-11-04T09:30:58;2.47;;;0.70;;
20557;SDS011;10437;48.156;11.530;2022-11-04T09:33:26;1.60;;;1.00;;
20557;SDS011;10437;48.156;11.530;2022-11-04T09:35:53;3.57;;;0.90;;
20557;SDS011;10437;48.156;11.530;2022-11-04T09:38:20;2.40;;;0.80;;
20557;SDS011;10437;48.156;11.530;2022-11-04T09:40:48;3.00;;;0.93;;
20557;SDS011;10437;48.156;11.530;2022-11-04T09:43:19;1.40;;;0.70;;
20557;SDS011;10437;48.156;11.530;2022-11-04T09:45:58;1.50;;;0.90;;
20557;SDS011;10437;48.156;11.530;2022-11-04T09:48:27;3.30;;;1.20;;
20557;SDS011;10437;48.156;11.530;2022-11-04T09:50:59;2.37;;;0.97;;
20557;SDS011;10437;48.156;11.530;2022-11-04T09:53:32;1.50;;;0.90;;
20557;SDS011;10437;48.156;11.530;2022-11-04T09:56:05;4.13;;;1.00;;
20557;SDS011;10437;48.156;11.530;2022-11-04T09:58:40;1.13;;;0.67;;
20557;SDS011;10437;48.156;11.530;2022-11-04T10:01:12;1.10;;;0.60;;
20557;SDS011;10437;48.156;11.530;2022-11-04T10:03:52;1.13;;;0.70;;
20557;SDS011;10437;48.156;11.530;2022-11-04T10:06:30;0.93;;;0.60;;
20557;SDS011;10437;48.156;11.530;2022-11-04T10:09:04;2.73;;;0.93;;
20557;SDS011;10437;48.156;11.530;2022-11-04T10:11:43;1.07;;;0.67;;
20557;SDS011;10437;48.156;11.530;2022-11-04T10:20:11;2.70;;;1.00;;
20557;SDS011;10437;48.156;11.530;2022-11-04T10:22:54;5.83;;;1.50;;
20557;SDS011;10437;48.156;11.530;2022-11-04T10:25:24;2.67;;;1.17;;
20557;SDS011;10437;48.156;11.530;2022-11-04T10:27:57;1.40;;;0.90;;
20557;SDS011;10437;48.156;11.530;2022-11-04T10:30:24;3.70;;;1.20;;
20557;SDS011;10437;48.156;11.530;2022-11-04T10:32:57;1.00;;;0.80;;
20557;SDS011;10437;48.156;11.530;2022-11-04T10:35:29;1.43;;;0.93;;
20557;SDS011;10437;48.156;11.530;2022-11-04T10:38:00;1.80;;;0.80;;
20557;SDS011;10437;48.156;11.530;2022-11-04T10:40:40;2.67;;;0.80;;
20557;SDS011;10437;48.156;11.530;2022-11-04T10:43:12;4.30;;;1.07;;
20557;SDS011;10437;48.156;11.530;2022-11-04T10:45:45;1.33;;;0.70;;
20557;SDS011;10437;48.156;11.530;2022-11-04T10:48:23;2.20;;;1.30;;
20557;SDS011;10437;48.156;11.530;2022-11-04T10:50:56;3.25;;;1.00;;
20557;SDS011;10437;48.156;11.530;2022-11-04T10:53:24;1.97;;;1.13;;
20557;SDS011;10437;48.156;11.530;2022-11-04T10:55:53;2.97;;;1.10;;
20557;SDS011;10437;48.156;11.530;2022-11-04T10:58:28;4.13;;;1.10;;
20557;SDS011;10437;48.156;11.530;2022-11-04T11:00:57;1.70;;;0.80;;
20557;SDS011;10437;48.156;11.530;2022-11-04T11:03:30;3.28;;;1.00;;
20557;SDS011;10437;48.156;11.530;2022-11-04T11:06:12;3.80;;;1.42;;
20557;SDS011;10437;48.156;11.530;2022-11-04T11:08:41;4.07;;;0.93;;
20557;SDS011;10437;48.156;11.530;2022-11-04T11:11:09;4.73;;;1.20;;
20557;SDS011;10437;48.156;11.530;2022-11-04T11:13:37;4.72;;;1.20;;
20557;SDS011;10437;48.156;11.530;2022-11-04T11:16:07;3.00;;;1.40;;
20557;SDS011;10437;48.156;11.530;2022-11-04T11:18:38;3.60;;;1.33;;
20557;SDS011;10437;48.156;11.530;2022-11-04T11:21:10;3.37;;;1.30;;
20557;SDS011;10437;48.156;11.530;2022-11-04T11:23:39;4.15;;;1.40;;
20557;SDS011;10437;48.156;11.530;2022-11-04T11:26:08;2.73;;;1.43;;
20557;SDS011;10437;48.156;11.530;2022-11-04T11:28:37;2.83;;;1.73;;
20557;SDS011;10437;48.156;11.530;2022-11-04T11:31:06;4.32;;;1.50;;
20557;SDS011;10437;48.156;11.530;2022-11-04T11:33:44;3.53;;;1.02;;
20557;SDS011;10437;48.156;11.530;2022-11-04T11:36:15;2.58;;;0.85;;
20557;SDS011;10437;48.156;11.530;2022-11-04T11:38:52;1.77;;;0.90;;
20557;SDS011;10437;48.156;11.530;2022-11-04T11:41:25;4.47;;;1.10;;
20557;SDS011;10437;48.156;11.530;2022-11-04T11:44:03;1.90;;;1.00;;
20557;SDS011;10437;48.156;11.530;2022-11-04T11:46:33;2.55;;;1.10;;
20557;SDS011;10437;48.156;11.530;2022-11-04T11:49:04;1.53;;;0.87;;
20557;SDS011;10437;48.156;11.530;2022-11-04T11:51:32;1.57;;;0.83;;
20557;SDS011;10437;48.156;11.530;2022-11-04T11:56:53;0.93;;;0.70;;
20557;SDS011;10437;48.156;11.530;2022-11-04T11:59:28;1.73;;;0.90;;
20557;SDS011;10437;48.156;11.530;2022-11-04T12:02:18;1.45;;;0.98;;
20557;SDS011;10437;48.156;11.530;2022-11-04T12:04:51;1.30;;;0.77;;
20557;SDS011;10437;48.156;11.530;2022-11-04T12:07:22;2.37;;;0.90;;
20557;SDS011;10437;48.156;11.530;2022-11-04T12:09:58;3.17;;;0.60;;
20557;SDS011;10437;48.156;11.530;2022-11-04T12:12:36;2.30;;;0.60;;
20557;SDS011;10437;48.156;11.530;2022-11-04T12:15:24;1.80;;;1.00;;
20557;SDS011;10437;48.156;11.530;2022-11-04T12:18:03;1.73;;;0.80;;
20557;SDS011;10437;48.156;11.530;2022-11-04T12:20:58;1.07;;;0.60;;
20557;SDS011;10437;48.156;11.530;2022-11-04T12:23:30;1.98;;;1.00;;
20557;SDS011;10437;48.156;11.530;2022-11-04T12:26:07;1.60;;;0.77;;
20557;SDS011;10437;48.156;11.530;2022-11-04T12:28:48;1.23;;;0.70;;
20557;SDS011;10437;48.156;11.530;2022-11-04T12:31:34;1.30;;;0.70;;
20557;SDS011;10437;48.156;11.530;2022-11-04T12:34:10;2.67;;;0.63;;
20557;SDS011;10437;48.156;11.530;2022-11-04T12:36:52;0.80;;;0.50;;
20557;SDS011;10437;48.156;11.530;2022-11-04T12:39:36;0.87;;;0.47;;
20557;SDS011;10437;48.156;11.530;2022-11-04T12:42:16;1.57;;;0.77;;
20557;SDS011;10437;48.156;11.530;2022-11-04T12:44:49;3.23;;;0.73;;
20557;SDS011;10437;48.156;11.530;2022-11-04T12:47:29;1.20;;;0.53;;
20557;SDS011;10437;48.156;11.530;2022-11-04T12:50:09;1.57;;;0.90;;
20557;SDS011;10437;48.156;11.530;2022-11-04T12:52:52;2.53;;;0.70;;
20557;SDS011;10437;48.156;11.530;2022-11-04T12:55:37;1.67;;;0.70;;
20557;SDS011;10437;48.156;11.530;2022-11-04T12:58:15;2.00;;;1.10;;
20557;SDS011;10437;48.156;11.530;2022-11-04T13:00:55;2.60;;;1.00;;
20557;SDS011;10437;48.156;11.530;2022-11-04T13:03:28;2.73;;;0.90;;
20557;SDS011;10437;48.156;11.530;2022-11-04T13:06:01;3.10;;;1.07;;
20557;SDS011;10437;48.156;11.530;2022-11-04T13:08:33;2.67;;;1.30;;
20557;SDS011;10437;48.156;11.530;2022-11-04T13:11:07;1.00;;;0.80;;
20557;SDS011;10437;48.156;11.530;2022-11-04T13:13:48;4.40;;;1.07;;
20557;SDS011;10437;48.156;11.530;2022-11-04T13:16:22;1.97;;;1.10;;
20557;SDS011;10437;48.156;11.530;2022-11-04T13:18:50;1.90;;;1.00;;
20557;SDS011;10437;48.156;11.530;2022-11-04T13:21:18;3.40;;;0.90;;
20557;SDS011;10437;48.156;11.530;2022-11-04T13:23:51;2.57;;;1.03;;
20557;SDS011;10437;48.156;11.530;2022-11-04T13:26:22;4.17;;;1.50;;
20557;SDS011;10437;48.156;11.530;2022-11-04T13:28:52;1.80;;;0.97;;
20557;SDS011;10437;48.156;11.530;2022-11-04T13:31:26;3.10;;;0.80;;
20557;SDS011;10437;48.156;11.530;2022-11-04T13:34:00;1.33;;;0.70;;
20557;SDS011;10437;48.156;11.530;2022-11-04T13:36:35;1.63;;;0.93;;
20557;SDS011;10437;48.156;11.530;2022-11-04T13:39:10;3.07;;;1.30;;
20557;SDS011;10437;48.156;11.530;2022-11-04T13:42:01;2.23;;;1.17;;
20557;SDS011;10437;48.156;11.530;2022-11-04T13:44:39;2.40;;;0.93;;
20557;SDS011;10437;48.156;11.530;2022-11-04T13:47:14;5.57;;;1.13;;
20557;SDS011;10437;48.156;11.530;2022-11-04T13:49:47;2.70;;;1.10;;
20557;SDS011;10437;48.156;11.530;2022-11-04T13:52:15;3.67;;;0.90;;
20557;SDS011;10437;48.156;11.530;2022-11-04T13:54:44;4.27;;;1.17;;
20557;SDS011;10437;48.156;11.530;2022-11-04T13:57:18;4.60;;;1.13;;
20557;SDS011;10437;48.156;11.530;2022-11-04T14:02:35;1.73;;;1.10;;
20557;SDS011;10437;48.156;11.530;2022-11-04T14:08:11;1.90;;;1.10;;
20557;SDS011;10437;48.156;11.530;2022-11-04T14:10:44;3.27;;;1.27;;
20557;SDS011;10437;48.156;11.530;2022-11-04T14:22:14;3.53;;;1.73;;
20557;SDS011;10437;48.156;11.530;2022-11-04T14:24:42;2.67;;;1.20;;
20557;SDS011;10437;48.156;11.530;2022-11-04T14:27:23;3.73;;;1.40;;
20557;SDS011;10437;48.156;11.530;2022-11-04T14:29:52;2.03;;;1.30;;
20557;SDS011;10437;48.156;11.530;2022-11-04T14:32:21;2.70;;;1.40;;
20557;SDS011;10437;48.156;11.530;2022-11-04T14:34:56;1.87;;;1.43;;
20557;SDS011;10437;48.156;11.530;2022-11-04T14:37:25;3.53;;;1.20;;
20557;SDS011;10437;48.156;11.530;2022-11-04T14:39:55;4.83;;;1.40;;
20557;SDS011;10437;48.156;11.530;2022-11-04T14:42:49;4.17;;;1.30;;
20557;SDS011;10437;48.156;11.530;2022-11-04T14:45:19;5.73;;;1.27;;
20557;SDS011;10437;48.156;11.530;2022-11-04T14:47:50;4.50;;;1.13;;
20557;SDS011;10437;48.156;11.530;2022-11-04T14:50:20;3.23;;;1.13;;
20557;SDS011;10437;48.156;11.530;2022-11-04T14:52:52;1.60;;;1.00;;
20557;SDS011;10437;48.156;11.530;2022-11-04T14:55:23;1.03;;;0.77;;
20557;SDS011;10437;48.156;11.530;2022-11-04T14:57:54;4.37;;;1.07;;
20557;SDS011;10437;48.156;11.530;2022-11-04T15:00:29;2.17;;;1.03;;
20557;SDS011;10437;48.156;11.530;2022-11-04T15:03:03;1.47;;;0.70;;
20557;SDS011;10437;48.156;11.530;2022-11-04T15:05:37;2.57;;;0.73;;
20557;SDS011;10437;48.156;11.530;2022-11-04T15:11:10;1.93;;;0.47;;
20557;SDS011;10437;48.156;11.530;2022-11-04T15:13:46;1.03;;;0.50;;
20557;SDS011;10437;48.156;11.530;2022-11-04T15:16:15;1.97;;;0.70;;
20557;SDS011;10437;48.156;11.530;2022-11-04T15:18:45;2.13;;;0.87;;
20557;SDS011;10437;48.156;11.530;2022-11-04T15:21:13;2.03;;;0.90;;
20557;SDS011;10437;48.156;11.530;2022-11-04T15:23:41;3.67;;;0.90;;
20557;SDS011;10437;48.156;11.530;2022-11-04T15:26:14;2.77;;;0.77;;
20557;SDS011;10437;48.156;11.530;2022-11-04T15:28:48;4.50;;;0.60;;